sensor_id;sensor_type;location;lat;lon;timestamp;pressure;altitude;pressure_sealevel;temperature;humidity
71344;BME280;59146;43.850;25.948;2022-09-09T00:02:02;101040.50;;;21.63;49.20
71344;BME280;59146;43.850;25.948;2022-09-09T00:04:32;101055.41;;;21.74;49.28
71344;BME280;59146;43.850;25.948;2022-09-09T00:07:07;101010.25;;;21.47;49.17
71344;BME280;59146;43.850;25.948;2022-09-09T00:12:45;101083.75;;;21.83;48.84
71344;BME280;59146;43.850;25.948;2022-09-09T00:15:25;101051.75;;;21.75;48.85
71344;BME280;59146;43.850;25.948;2022-09-09T00:18:20;101079.84;;;21.77;49.17
71344;BME280;59146;43.850;25.948;2022-09-09T00:21:11;101076.50;;;21.75;49.33
71344;BME280;59146;43.850;25.948;2022-09-09T00:23:50;101017.16;;;21.40;49.10
71344;BME280;59146;43.850;25.948;2022-09-09T00:29:27;101073.31;;;21.72;48.99
71344;BME280;59146;43.850;25.948;2022-09-09T00:31:53;101072.63;;;21.70;49.07
71344;BME280;59146;43.850;25.948;2022-09-09T00:34:24;101069.88;;;21.62;49.17
71344;BME280;59146;43.850;25.948;2022-09-09T00:36:52;101030.16;;;21.43;49.03
71344;BME280;59146;43.850;25.948;2022-09-09T00:39:42;101089.47;;;21.61;49.53
71344;BME280;59146;43.850;25.948;2022-09-09T00:42:46;101052.31;;;21.51;49.10
71344;BME280;59146;43.850;25.948;2022-09-09T00:48:01;101020.69;;;21.30;49.33
71344;BME280;59146;43.850;25.948;2022-09-09T00:50:53;101094.03;;;21.68;49.25
71344;BME280;59146;43.850;25.948;2022-09-09T00:54:10;101094.81;;;21.61;48.98
71344;BME280;59146;43.850;25.948;2022-09-09T00:56:18;101031.63;;;21.27;49.13
71344;BME280;59146;43.850;25.948;2022-09-09T00:59:04;101033.09;;;21.40;49.72
71344;BME280;59146;43.850;25.948;2022-09-09T01:01:33;101035.56;;;21.51;49.26
71344;BME280;59146;43.850;25.948;2022-09-09T01:03:58;101034.22;;;21.37;48.81
71344;BME280;59146;43.850;25.948;2022-09-09T01:06:34;101045.19;;;21.52;49.58
71344;BME280;59146;43.850;25.948;2022-09-09T01:17:30;101061.31;;;21.68;48.52
71344;BME280;59146;43.850;25.948;2022-09-09T01:20:17;101056.00;;;21.68;49.44
71344;BME280;59146;43.850;25.948;2022-09-09T01:28:11;101059.34;;;21.70;49.16
71344;BME280;59146;43.850;25.948;2022-09-09T01:30:40;101036.72;;;21.66;48.46
71344;BME280;59146;43.850;25.948;2022-09-09T01:33:11;101024.91;;;21.51;48.91
71344;BME280;59146;43.850;25.948;2022-09-09T01:38:06;101007.28;;;21.50;48.58
71344;BME280;59146;43.850;25.948;2022-09-09T01:40:32;100985.72;;;21.35;48.16
71344;BME280;59146;43.850;25.948;2022-09-09T01:42:58;101043.06;;;21.73;48.10
71344;BME280;59146;43.850;25.948;2022-09-09T01:45:24;101019.38;;;21.62;47.55
71344;BME280;59146;43.850;25.948;2022-09-09T01:47:52;100988.16;;;21.46;47.77
71344;BME280;59146;43.850;25.948;2022-09-09T01:50:17;100993.84;;;21.33;48.08
71344;BME280;59146;43.850;25.948;2022-09-09T01:52:46;100996.09;;;21.28;48.27
71344;BME280;59146;43.850;25.948;2022-09-09T01:55:12;100903.72;;;20.78;48.18
71344;BME280;59146;43.850;25.948;2022-09-09T01:57:57;101043.84;;;21.65;47.70
71344;BME280;59146;43.850;25.948;2022-09-09T02:00:26;101025.28;;;21.56;47.96
71344;BME280;59146;43.850;25.948;2022-09-09T02:03:13;101044.22;;;21.53;47.78
71344;BME280;59146;43.850;25.948;2022-09-09T02:06:23;101030.72;;;21.36;48.23
71344;BME280;59146;43.850;25.948;2022-09-09T02:08:46;101044.22;;;21.53;47.44
71344;BME280;59146;43.850;25.948;2022-09-09T02:11:15;101020.81;;;21.39;48.03
71344;BME280;59146;43.850;25.948;2022-09-09T02:13:43;101027.88;;;21.48;47.62
71344;BME280;59146;43.850;25.948;2022-09-09T02:16:21;101032.66;;;21.44;47.96
71344;BME280;59146;43.850;25.948;2022-09-09T02:21:22;100972.97;;;21.11;48.17
71344;BME280;59146;43.850;25.948;2022-09-09T02:23:49;100999.09;;;21.16;47.75
71344;BME280;59146;43.850;25.948;2022-09-09T02:26:17;101032.91;;;21.51;47.47
71344;BME280;59146;43.850;25.948;2022-09-09T02:28:48;100987.50;;;21.17;47.56
71344;BME280;59146;43.850;25.948;2022-09-09T02:31:18;101015.94;;;21.34;48.27
71344;BME280;59146;43.850;25.948;2022-09-09T02:33:49;101040.88;;;21.51;48.68
71344;BME280;59146;43.850;25.948;2022-09-09T02:36:17;101077.56;;;21.65;48.77
71344;BME280;59146;43.850;25.948;2022-09-09T02:38:46;101061.63;;;21.38;49.96
71344;BME280;59146;43.850;25.948;2022-09-09T02:41:19;101095.44;;;21.45;51.01
71344;BME280;59146;43.850;25.948;2022-09-09T02:43:46;101003.16;;;20.83;52.32
71344;BME280;59146;43.850;25.948;2022-09-09T02:49:09;101012.88;;;20.65;51.93
71344;BME280;59146;43.850;25.948;2022-09-09T02:51:48;101078.16;;;20.95;51.72
71344;BME280;59146;43.850;25.948;2022-09-09T02:56:53;101015.22;;;20.68;50.40
71344;BME280;59146;43.850;25.948;2022-09-09T02:59:19;101069.75;;;20.99;51.38
71344;BME280;59146;43.850;25.948;2022-09-09T03:01:45;101081.81;;;20.94;51.44
71344;BME280;59146;43.850;25.948;2022-09-09T03:04:10;101057.22;;;20.82;50.13
71344;BME280;59146;43.850;25.948;2022-09-09T03:06:36;101041.81;;;20.58;51.37
71344;BME280;59146;43.850;25.948;2022-09-09T03:09:02;101001.38;;;20.28;52.25
71344;BME280;59146;43.850;25.948;2022-09-09T03:11:28;101040.69;;;20.61;52.10
71344;BME280;59146;43.850;25.948;2022-09-09T03:13:54;101021.13;;;20.62;52.67
71344;BME280;59146;43.850;25.948;2022-09-09T03:16:24;101006.19;;;20.61;52.31
71344;BME280;59146;43.850;25.948;2022-09-09T03:18:49;101063.31;;;21.02;51.15
71344;BME280;59146;43.850;25.948;2022-09-09T03:21:15;100989.97;;;20.64;51.84
71344;BME280;59146;43.850;25.948;2022-09-09T03:23:41;100982.59;;;20.58;51.79
71344;BME280;59146;43.850;25.948;2022-09-09T03:26:06;101045.00;;;20.99;49.89
71344;BME280;59146;43.850;25.948;2022-09-09T03:28:32;101035.44;;;20.88;50.81
71344;BME280;59146;43.850;25.948;2022-09-09T03:31:01;100936.44;;;20.32;50.19
71344;BME280;59146;43.850;25.948;2022-09-09T03:33:27;101045.78;;;20.82;50.10
71344;BME280;59146;43.850;25.948;2022-09-09T03:35:53;101023.19;;;20.68;49.65
71344;BME280;59146;43.850;25.948;2022-09-09T03:38:23;101045.16;;;20.97;50.11
71344;BME280;59146;43.850;25.948;2022-09-09T03:40:53;100972.66;;;20.60;48.51
71344;BME280;59146;43.850;25.948;2022-09-09T03:43:21;101017.13;;;20.85;48.71
71344;BME280;59146;43.850;25.948;2022-09-09T03:45:47;101024.66;;;20.90;51.73
71344;BME280;59146;43.850;25.948;2022-09-09T03:48:13;101042.03;;;21.11;53.61
71344;BME280;59146;43.850;25.948;2022-09-09T03:50:39;101071.66;;;21.26;54.88
71344;BME280;59146;43.850;25.948;2022-09-09T03:53:09;101047.94;;;21.05;55.15
71344;BME280;59146;43.850;25.948;2022-09-09T03:55:34;101003.06;;;20.75;55.74
71344;BME280;59146;43.850;25.948;2022-09-09T03:58:00;101048.38;;;21.01;56.02
71344;BME280;59146;43.850;25.948;2022-09-09T04:00:25;101053.59;;;21.20;55.35
71344;BME280;59146;43.850;25.948;2022-09-09T04:02:51;101008.56;;;20.91;52.58
71344;BME280;59146;43.850;25.948;2022-09-09T04:05:21;101043.91;;;21.28;52.88
71344;BME280;59146;43.850;25.948;2022-09-09T04:07:46;101025.06;;;21.67;51.55
71344;BME280;59146;43.850;25.948;2022-09-09T04:10:12;100987.22;;;22.51;45.32
71344;BME280;59146;43.850;25.948;2022-09-09T04:12:38;101022.63;;;23.45;49.05
71344;BME280;59146;43.850;25.948;2022-09-09T04:15:04;100998.34;;;23.80;47.09
71344;BME280;59146;43.850;25.948;2022-09-09T04:17:29;101039.22;;;24.61;46.80
71344;BME280;59146;43.850;25.948;2022-09-09T04:19:55;100994.75;;;24.84;46.59
71344;BME280;59146;43.850;25.948;2022-09-09T04:22:22;101057.50;;;25.96;45.33
71344;BME280;59146;43.850;25.948;2022-09-09T04:24:47;101005.03;;;25.87;44.95
71344;BME280;59146;43.850;25.948;2022-09-09T04:27:12;101023.00;;;26.76;42.58
71344;BME280;59146;43.850;25.948;2022-09-09T04:29:38;101057.72;;;27.42;41.22
71344;BME280;59146;43.850;25.948;2022-09-09T04:32:03;101017.53;;;27.85;40.44
71344;BME280;59146;43.850;25.948;2022-09-09T04:34:29;101037.84;;;28.36;38.64
71344;BME280;59146;43.850;25.948;2022-09-09T04:36:56;101008.38;;;28.49;38.29
71344;BME280;59146;43.850;25.948;2022-09-09T04:39:22;101057.09;;;29.01;37.90
71344;BME280;59146;43.850;25.948;2022-09-09T04:41:47;101047.63;;;29.53;34.85
71344;BME280;59146;43.850;25.948;2022-09-09T04:44:13;101030.16;;;30.09;34.49
71344;BME280;59146;43.850;25.948;2022-09-09T04:46:39;101049.03;;;30.35;33.16
71344;BME280;59146;43.850;25.948;2022-09-09T04:49:06;101024.56;;;30.50;32.69
71344;BME280;59146;43.850;25.948;2022-09-09T04:51:31;101059.63;;;30.43;34.62
71344;BME280;59146;43.850;25.948;2022-09-09T04:53:57;101018.91;;;30.78;33.41
71344;BME280;59146;43.850;25.948;2022-09-09T04:56:22;101053.69;;;31.12;33.10
71344;BME280;59146;43.850;25.948;2022-09-09T04:58:48;101043.00;;;30.73;32.64
71344;BME280;59146;43.850;25.948;2022-09-09T05:01:15;101028.69;;;31.29;30.48
71344;BME280;59146;43.850;25.948;2022-09-09T05:03:42;101026.78;;;31.81;29.60
71344;BME280;59146;43.850;25.948;2022-09-09T05:06:12;101066.16;;;32.01;29.34
71344;BME280;59146;43.850;25.948;2022-09-09T05:08:39;101029.97;;;31.71;31.20
71344;BME280;59146;43.850;25.948;2022-09-09T05:11:25;101033.13;;;31.17;31.23
71344;BME280;59146;43.850;25.948;2022-09-09T05:13:52;101054.19;;;30.56;32.39
71344;BME280;59146;43.850;25.948;2022-09-09T05:16:18;101060.19;;;31.49;30.05
71344;BME280;59146;43.850;25.948;2022-09-09T05:18:45;101050.75;;;31.20;29.94
71344;BME280;59146;43.850;25.948;2022-09-09T05:21:16;101032.84;;;31.32;31.61
71344;BME280;59146;43.850;25.948;2022-09-09T05:23:42;101069.56;;;30.43;33.10
71344;BME280;59146;43.850;25.948;2022-09-09T05:26:12;101075.47;;;29.73;33.38
71344;BME280;59146;43.850;25.948;2022-09-09T05:28:38;101064.25;;;29.16;34.17
71344;BME280;59146;43.850;25.948;2022-09-09T05:31:06;101031.84;;;29.30;33.04
71344;BME280;59146;43.850;25.948;2022-09-09T05:33:34;101074.19;;;29.15;34.59
71344;BME280;59146;43.850;25.948;2022-09-09T05:36:05;101012.34;;;27.83;35.55
71344;BME280;59146;43.850;25.948;2022-09-09T05:38:31;101031.72;;;28.21;34.91
71344;BME280;59146;43.850;25.948;2022-09-09T05:40:58;101033.53;;;28.14;35.23
71344;BME280;59146;43.850;25.948;2022-09-09T05:43:24;101037.09;;;28.21;35.25
71344;BME280;59146;43.850;25.948;2022-09-09T05:46:07;101061.28;;;28.00;35.92
71344;BME280;59146;43.850;25.948;2022-09-09T05:48:38;100949.91;;;27.75;35.04
71344;BME280;59146;43.850;25.948;2022-09-09T05:51:06;101060.94;;;28.30;35.19
71344;BME280;59146;43.850;25.948;2022-09-09T05:53:35;101060.00;;;28.17;35.54
71344;BME280;59146;43.850;25.948;2022-09-09T05:56:06;101025.84;;;27.69;35.61
71344;BME280;59146;43.850;25.948;2022-09-09T05:58:32;101017.38;;;27.50;36.90
71344;BME280;59146;43.850;25.948;2022-09-09T06:01:18;101027.81;;;26.95;36.63
71344;BME280;59146;43.850;25.948;2022-09-09T06:03:46;101011.25;;;26.92;37.87
71344;BME280;59146;43.850;25.948;2022-09-09T06:06:19;100997.66;;;26.35;39.52
71344;BME280;59146;43.850;25.948;2022-09-09T06:08:50;100974.25;;;25.69;39.34
71344;BME280;59146;43.850;25.948;2022-09-09T06:11:17;101047.44;;;25.98;40.86
71344;BME280;59146;43.850;25.948;2022-09-09T06:13:43;100976.47;;;25.43;40.28
71344;BME280;59146;43.850;25.948;2022-09-09T06:16:10;100991.91;;;25.55;40.02
71344;BME280;59146;43.850;25.948;2022-09-09T06:18:40;101018.63;;;25.86;40.23
71344;BME280;59146;43.850;25.948;2022-09-09T06:21:15;101022.78;;;26.11;39.72
71344;BME280;59146;43.850;25.948;2022-09-09T06:23:40;100978.78;;;25.91;41.81
71344;BME280;59146;43.850;25.948;2022-09-09T06:26:16;100995.75;;;26.72;41.99
71344;BME280;59146;43.850;25.948;2022-09-09T06:28:46;101042.09;;;27.31;42.19
71344;BME280;59146;43.850;25.948;2022-09-09T06:31:14;101049.44;;;27.73;38.65
71344;BME280;59146;43.850;25.948;2022-09-09T06:33:41;101020.56;;;27.82;37.53
71344;BME280;59146;43.850;25.948;2022-09-09T06:36:14;101045.97;;;28.49;35.88
71344;BME280;59146;43.850;25.948;2022-09-09T06:38:41;101014.06;;;29.01;34.08
71344;BME280;59146;43.850;25.948;2022-09-09T06:41:08;101004.84;;;28.76;33.35
71344;BME280;59146;43.850;25.948;2022-09-09T06:43:34;101048.94;;;29.16;34.83
71344;BME280;59146;43.850;25.948;2022-09-09T06:46:11;101030.47;;;29.60;34.09
71344;BME280;59146;43.850;25.948;2022-09-09T06:48:38;100982.22;;;29.52;33.39
71344;BME280;59146;43.850;25.948;2022-09-09T06:51:08;101019.16;;;29.85;32.83
71344;BME280;59146;43.850;25.948;2022-09-09T06:53:35;101034.25;;;29.79;34.36
71344;BME280;59146;43.850;25.948;2022-09-09T06:56:40;101044.41;;;29.77;34.24
71344;BME280;59146;43.850;25.948;2022-09-09T06:59:07;101052.91;;;29.94;31.99
71344;BME280;59146;43.850;25.948;2022-09-09T07:01:39;101034.09;;;30.13;31.81
71344;BME280;59146;43.850;25.948;2022-09-09T07:04:06;101010.22;;;30.63;30.48
71344;BME280;59146;43.850;25.948;2022-09-09T07:06:36;101002.16;;;30.17;32.66
71344;BME280;59146;43.850;25.948;2022-09-09T07:09:05;101053.09;;;31.03;30.31
71344;BME280;59146;43.850;25.948;2022-09-09T07:11:41;101011.50;;;30.21;34.06
71344;BME280;59146;43.850;25.948;2022-09-09T07:14:08;101030.53;;;30.72;32.86
71344;BME280;59146;43.850;25.948;2022-09-09T07:16:34;100965.84;;;30.65;31.91
71344;BME280;59146;43.850;25.948;2022-09-09T07:19:02;101035.91;;;30.85;32.74
71344;BME280;59146;43.850;25.948;2022-09-09T07:21:29;100940.63;;;30.40;32.57
71344;BME280;59146;43.850;25.948;2022-09-09T07:23:55;100996.59;;;30.44;32.15
71344;BME280;59146;43.850;25.948;2022-09-09T07:26:23;101034.00;;;30.98;31.92
71344;BME280;59146;43.850;25.948;2022-09-09T07:28:49;101003.19;;;30.62;32.53
71344;BME280;59146;43.850;25.948;2022-09-09T07:31:23;101014.81;;;30.55;32.65
71344;BME280;59146;43.850;25.948;2022-09-09T07:33:50;101011.50;;;30.60;32.81
71344;BME280;59146;43.850;25.948;2022-09-09T07:36:16;101053.56;;;30.68;33.48
71344;BME280;59146;43.850;25.948;2022-09-09T07:38:47;101052.03;;;31.11;33.18
71344;BME280;59146;43.850;25.948;2022-09-09T07:41:26;101054.56;;;31.06;33.98
71344;BME280;59146;43.850;25.948;2022-09-09T07:43:52;101005.22;;;30.86;32.73
71344;BME280;59146;43.850;25.948;2022-09-09T07:46:23;101005.69;;;30.56;33.85
71344;BME280;59146;43.850;25.948;2022-09-09T07:48:51;101014.19;;;30.67;34.07
71344;BME280;59146;43.850;25.948;2022-09-09T07:51:20;101019.78;;;30.58;34.16
71344;BME280;59146;43.850;25.948;2022-09-09T07:53:48;101068.06;;;30.93;32.79
71344;BME280;59146;43.850;25.948;2022-09-09T07:56:16;101020.56;;;30.79;32.62
71344;BME280;59146;43.850;25.948;2022-09-09T07:58:44;101037.44;;;31.31;31.99
71344;BME280;59146;43.850;25.948;2022-09-09T08:01:15;101033.44;;;31.47;32.53
71344;BME280;59146;43.850;25.948;2022-09-09T08:03:42;101026.09;;;31.61;33.12
71344;BME280;59146;43.850;25.948;2022-09-09T08:06:08;101051.59;;;31.71;32.58
71344;BME280;59146;43.850;25.948;2022-09-09T08:08:34;101031.50;;;31.10;33.35
71344;BME280;59146;43.850;25.948;2022-09-09T08:11:03;101045.81;;;31.10;33.26
71344;BME280;59146;43.850;25.948;2022-09-09T08:13:28;101020.13;;;30.95;31.75
71344;BME280;59146;43.850;25.948;2022-09-09T08:15:54;100988.44;;;30.71;31.95
71344;BME280;59146;43.850;25.948;2022-09-09T08:18:19;101057.41;;;31.11;31.51
71344;BME280;59146;43.850;25.948;2022-09-09T08:20:44;101023.09;;;30.60;31.93
71344;BME280;59146;43.850;25.948;2022-09-09T08:23:10;101020.63;;;30.52;33.72
71344;BME280;59146;43.850;25.948;2022-09-09T08:25:35;101045.72;;;30.40;34.20
71344;BME280;59146;43.850;25.948;2022-09-09T08:28:01;101003.66;;;30.32;33.95
71344;BME280;59146;43.850;25.948;2022-09-09T08:30:26;101017.50;;;30.55;33.06
71344;BME280;59146;43.850;25.948;2022-09-09T08:32:52;100980.00;;;30.47;32.72
71344;BME280;59146;43.850;25.948;2022-09-09T08:35:17;101001.75;;;30.59;32.74
71344;BME280;59146;43.850;25.948;2022-09-09T08:37:42;100985.59;;;30.26;32.97
71344;BME280;59146;43.850;25.948;2022-09-09T08:40:27;100963.78;;;30.60;33.98
71344;BME280;59146;43.850;25.948;2022-09-09T08:42:55;100982.91;;;30.39;32.60
71344;BME280;59146;43.850;25.948;2022-09-09T08:45:33;101010.41;;;30.81;32.39
71344;BME280;59146;43.850;25.948;2022-09-09T08:50:34;100954.38;;;30.83;32.31
71344;BME280;59146;43.850;25.948;2022-09-09T08:55:58;100960.56;;;31.41;31.92
71344;BME280;59146;43.850;25.948;2022-09-09T08:58:27;100986.66;;;31.84;31.25
71344;BME280;59146;43.850;25.948;2022-09-09T09:04:33;101007.81;;;32.19;29.99
71344;BME280;59146;43.850;25.948;2022-09-09T09:07:26;101004.69;;;32.22;30.37
71344;BME280;59146;43.850;25.948;2022-09-09T09:09:57;100998.47;;;32.39;29.86
71344;BME280;59146;43.850;25.948;2022-09-09T09:12:29;100957.69;;;31.98;30.71
71344;BME280;59146;43.850;25.948;2022-09-09T09:14:59;100960.53;;;32.28;30.59
71344;BME280;59146;43.850;25.948;2022-09-09T09:17:26;100960.28;;;31.80;30.77
71344;BME280;59146;43.850;25.948;2022-09-09T09:19:52;100967.66;;;31.42;32.69
71344;BME280;59146;43.850;25.948;2022-09-09T09:22:21;100990.03;;;31.42;32.70
71344;BME280;59146;43.850;25.948;2022-09-09T09:25:19;101007.38;;;31.59;31.45
71344;BME280;59146;43.850;25.948;2022-09-09T09:27:58;100987.78;;;32.01;30.88
71344;BME280;59146;43.850;25.948;2022-09-09T09:30:44;100976.53;;;32.29;30.21
71344;BME280;59146;43.850;25.948;2022-09-09T09:33:17;100987.78;;;32.51;29.90
71344;BME280;59146;43.850;25.948;2022-09-09T09:35:45;100964.94;;;32.65;30.08
71344;BME280;59146;43.850;25.948;2022-09-09T09:38:22;100912.69;;;32.53;29.12
71344;BME280;59146;43.850;25.948;2022-09-09T09:40:49;100964.41;;;32.93;30.22
71344;BME280;59146;43.850;25.948;2022-09-09T09:43:26;100932.72;;;32.63;29.83
71344;BME280;59146;43.850;25.948;2022-09-09T09:45:52;100951.72;;;32.75;29.69
71344;BME280;59146;43.850;25.948;2022-09-09T09:48:18;100924.81;;;32.44;29.48
71344;BME280;59146;43.850;25.948;2022-09-09T09:50:55;100967.00;;;32.69;29.26
71344;BME280;59146;43.850;25.948;2022-09-09T09:53:28;100950.69;;;32.76;29.23
71344;BME280;59146;43.850;25.948;2022-09-09T09:56:00;100932.50;;;32.65;29.26
71344;BME280;59146;43.850;25.948;2022-09-09T09:58:27;100927.22;;;32.70;29.36
71344;BME280;59146;43.850;25.948;2022-09-09T10:00:56;100925.81;;;32.97;29.45
71344;BME280;59146;43.850;25.948;2022-09-09T10:03:26;100947.72;;;33.14;28.74
71344;BME280;59146;43.850;25.948;2022-09-09T10:05:52;100944.31;;;33.18;28.95
71344;BME280;59146;43.850;25.948;2022-09-09T10:08:18;100915.69;;;33.11;29.66
71344;BME280;59146;43.850;25.948;2022-09-09T10:14:07;100969.72;;;33.77;28.68
71344;BME280;59146;43.850;25.948;2022-09-09T10:32:41;100835.28;;;33.00;28.88
71344;BME280;59146;43.850;25.948;2022-09-09T10:35:34;100917.03;;;33.61;29.08
71344;BME280;59146;43.850;25.948;2022-09-09T10:45:54;100919.81;;;34.19;27.07
71344;BME280;59146;43.850;25.948;2022-09-09T10:48:48;100946.19;;;34.47;26.37
71344;BME280;59146;43.850;25.948;2022-09-09T10:54:07;100950.69;;;34.53;27.13
71344;BME280;59146;43.850;25.948;2022-09-09T10:56:38;100900.84;;;34.07;27.08
71344;BME280;59146;43.850;25.948;2022-09-09T10:59:14;100952.56;;;34.52;25.53
71344;BME280;59146;43.850;25.948;2022-09-09T11:01:49;100946.22;;;34.35;27.11
71344;BME280;59146;43.850;25.948;2022-09-09T11:04:32;100918.84;;;34.25;27.79
71344;BME280;59146;43.850;25.948;2022-09-09T11:07:02;100922.28;;;34.44;26.75
71344;BME280;59146;43.850;25.948;2022-09-09T11:09:35;100937.75;;;34.83;25.40
71344;BME280;59146;43.850;25.948;2022-09-09T11:12:02;100929.63;;;34.83;26.53
71344;BME280;59146;43.850;25.948;2022-09-09T11:14:41;100944.88;;;34.37;26.99
71344;BME280;59146;43.850;25.948;2022-09-09T11:17:15;100933.00;;;34.50;27.15
71344;BME280;59146;43.850;25.948;2022-09-09T11:19:44;100920.94;;;34.46;26.43
71344;BME280;59146;43.850;25.948;2022-09-09T11:24:58;100883.22;;;34.45;26.71
71344;BME280;59146;43.850;25.948;2022-09-09T11:27:37;100892.28;;;34.62;26.72
71344;BME280;59146;43.850;25.948;2022-09-09T11:36:32;100932.53;;;34.42;27.54
71344;BME280;59146;43.850;25.948;2022-09-09T11:38:50;100857.72;;;34.06;27.37
71344;BME280;59146;43.850;25.948;2022-09-09T11:41:17;100913.41;;;34.48;26.81
71344;BME280;59146;43.850;25.948;2022-09-09T11:43:48;100901.66;;;34.31;27.29
71344;BME280;59146;43.850;25.948;2022-09-09T11:46:17;100905.63;;;34.40;27.30
71344;BME280;59146;43.850;25.948;2022-09-09T11:48:56;100913.91;;;33.99;28.03
71344;BME280;59146;43.850;25.948;2022-09-09T11:51:27;100908.00;;;34.25;26.73
71344;BME280;59146;43.850;25.948;2022-09-09T11:56:44;100910.06;;;34.69;26.13
71344;BME280;59146;43.850;25.948;2022-09-09T11:59:23;100910.97;;;34.86;25.75
71344;BME280;59146;43.850;25.948;2022-09-09T12:02:16;100906.13;;;35.00;26.76
71344;BME280;59146;43.850;25.948;2022-09-09T12:07:28;100902.06;;;35.31;24.84
71344;BME280;59146;43.850;25.948;2022-09-09T12:09:56;100894.47;;;35.33;26.10
71344;BME280;59146;43.850;25.948;2022-09-09T12:15:01;100861.03;;;34.99;25.56
71344;BME280;59146;43.850;25.948;2022-09-09T12:17:29;100878.28;;;35.21;25.03
71344;BME280;59146;43.850;25.948;2022-09-09T12:20:16;100884.44;;;35.17;25.97
71344;BME280;59146;43.850;25.948;2022-09-09T12:23:04;100877.88;;;34.73;25.85
71344;BME280;59146;43.850;25.948;2022-09-09T12:26:06;100875.81;;;34.40;25.75
71344;BME280;59146;43.850;25.948;2022-09-09T12:37:16;100830.66;;;33.41;26.84
71344;BME280;59146;43.850;25.948;2022-09-09T12:39:57;100818.22;;;33.40;26.85
71344;BME280;59146;43.850;25.948;2022-09-09T12:42:24;100834.84;;;33.55;27.61
71344;BME280;59146;43.850;25.948;2022-09-09T12:47:18;100845.78;;;33.84;26.73
71344;BME280;59146;43.850;25.948;2022-09-09T12:49:47;100794.56;;;33.82;26.86
71344;BME280;59146;43.850;25.948;2022-09-09T12:52:24;100810.56;;;34.07;26.01
71344;BME280;59146;43.850;25.948;2022-09-09T12:54:52;100806.69;;;34.03;25.99
71344;BME280;59146;43.850;25.948;2022-09-09T12:57:19;100825.44;;;34.04;26.24
71344;BME280;59146;43.850;25.948;2022-09-09T12:59:47;100825.66;;;33.91;26.79
71344;BME280;59146;43.850;25.948;2022-09-09T13:02:26;100817.41;;;33.75;26.90
71344;BME280;59146;43.850;25.948;2022-09-09T13:04:53;100820.94;;;33.75;26.90
71344;BME280;59146;43.850;25.948;2022-09-09T13:07:20;100776.66;;;33.58;27.87
71344;BME280;59146;43.850;25.948;2022-09-09T13:09:47;100777.25;;;33.72;27.84
71344;BME280;59146;43.850;25.948;2022-09-09T13:12:22;100779.84;;;33.78;27.45
71344;BME280;59146;43.850;25.948;2022-09-09T13:14:55;100817.38;;;34.32;27.23
71344;BME280;59146;43.850;25.948;2022-09-09T13:17:24;100821.47;;;34.35;25.57
71344;BME280;59146;43.850;25.948;2022-09-09T13:19:52;100801.44;;;34.36;26.34
71344;BME280;59146;43.850;25.948;2022-09-09T13:22:35;100797.66;;;34.37;26.27
71344;BME280;59146;43.850;25.948;2022-09-09T13:27:30;100820.28;;;34.42;26.03
71344;BME280;59146;43.850;25.948;2022-09-09T13:29:56;100776.50;;;34.22;26.00
71344;BME280;59146;43.850;25.948;2022-09-09T13:32:23;100794.00;;;34.31;26.41
71344;BME280;59146;43.850;25.948;2022-09-09T13:35:00;100690.00;;;33.46;25.70
71344;BME280;59146;43.850;25.948;2022-09-09T13:37:37;100788.91;;;33.84;27.14
71344;BME280;59146;43.850;25.948;2022-09-09T13:40:05;100798.00;;;33.54;27.04
71344;BME280;59146;43.850;25.948;2022-09-09T13:42:33;100758.03;;;33.15;27.54
71344;BME280;59146;43.850;25.948;2022-09-09T13:45:02;100758.84;;;33.04;28.78
71344;BME280;59146;43.850;25.948;2022-09-09T13:47:35;100801.09;;;33.05;28.13
71344;BME280;59146;43.850;25.948;2022-09-09T13:50:30;100797.03;;;32.96;28.55
71344;BME280;59146;43.850;25.948;2022-09-09T13:52:58;100795.09;;;32.85;29.16
71344;BME280;59146;43.850;25.948;2022-09-09T13:55:25;100753.00;;;32.48;28.84
71344;BME280;59146;43.850;25.948;2022-09-09T14:00:18;100787.97;;;32.61;30.16
71344;BME280;59146;43.850;25.948;2022-09-09T14:02:43;100740.44;;;32.24;29.61
71344;BME280;59146;43.850;25.948;2022-09-09T14:05:09;100749.72;;;32.28;29.52
71344;BME280;59146;43.850;25.948;2022-09-09T14:07:36;100764.19;;;32.33;29.22
71344;BME280;59146;43.850;25.948;2022-09-09T14:10:04;100762.75;;;32.31;29.20
71344;BME280;59146;43.850;25.948;2022-09-09T14:12:29;100755.22;;;32.21;29.97
71344;BME280;59146;43.850;25.948;2022-09-09T14:14:55;100741.19;;;31.94;31.63
71344;BME280;59146;43.850;25.948;2022-09-09T14:17:20;100790.13;;;32.04;33.18
71344;BME280;59146;43.850;25.948;2022-09-09T14:19:47;100789.53;;;32.02;34.38
71344;BME280;59146;43.850;25.948;2022-09-09T14:22:13;100721.50;;;31.51;35.04
71344;BME280;59146;43.850;25.948;2022-09-09T14:24:38;100730.88;;;31.49;33.55
71344;BME280;59146;43.850;25.948;2022-09-09T14:27:04;100789.16;;;31.74;33.23
71344;BME280;59146;43.850;25.948;2022-09-09T14:29:29;100696.97;;;31.10;32.52
71344;BME280;59146;43.850;25.948;2022-09-09T14:31:54;100754.94;;;31.50;32.46
71344;BME280;59146;43.850;25.948;2022-09-09T14:34:20;100728.28;;;31.35;32.34
71344;BME280;59146;43.850;25.948;2022-09-09T14:36:45;100741.13;;;31.40;32.29
71344;BME280;59146;43.850;25.948;2022-09-09T14:39:12;100779.38;;;31.55;32.57
71344;BME280;59146;43.850;25.948;2022-09-09T14:41:37;100757.91;;;31.42;32.59
71344;BME280;59146;43.850;25.948;2022-09-09T14:44:03;100727.75;;;31.27;32.90